Time;durP1;ratioP1;P1;durP2;ratioP2;P2;SDS_P1;SDS_P2;PMS_P1;PMS_P2;Temp;Humidity;BMP_temperature;BMP_pressure;BME280_temperature;BME280_humidity;BME280_pressure;Samples;Min_cycle;Max_cycle;Signal;HPM_P1;HPM_P2
2022/06/05 00:02:00;;;;;;;4.18;1.95;;;16.00;99.90;;;;;;4997803;28;20497;-68
2022/06/05 00:04:45;;;;;;;3.08;1.85;;;16.00;99.90;;;;;;4996061;28;20089;-68
2022/06/05 00:07:15;;;;;;;2.60;1.70;;;15.90;99.90;;;;;;4992352;28;20069;-68
2022/06/05 00:10:02;;;;;;;6.10;2.30;;;15.90;99.90;;;;;;4994082;28;20046;-69
2022/06/05 00:12:58;;;;;;;6.03;1.85;;;15.80;99.90;;;;;;4996430;28;20486;-68
2022/06/05 00:15:24;;;;;;;4.25;2.08;;;15.80;99.90;;;;;;4994162;28;20038;-68
2022/06/05 00:17:50;;;;;;;6.95;2.38;;;15.80;99.90;;;;;;4996236;28;20034;-68
2022/06/05 00:20:16;;;;;;;7.30;2.50;;;15.80;99.90;;;;;;4996718;28;20039;-68
2022/06/05 00:22:42;;;;;;;9.85;2.20;;;15.70;99.90;;;;;;4996042;28;20029;-69
2022/06/05 00:25:10;;;;;;;5.95;2.45;;;15.70;99.90;;;;;;4998961;28;20034;-69
2022/06/05 00:27:46;;;;;;;8.00;1.85;;;15.70;99.90;;;;;;4994951;28;20038;-71
2022/06/05 00:30:50;;;;;;;7.30;2.85;;;15.70;99.90;;;;;;4997788;28;20046;-69
2022/06/05 00:33:27;;;;;;;5.40;2.38;;;15.60;99.90;;;;;;4993561;28;20037;-69
2022/06/05 00:35:56;;;;;;;6.35;2.55;;;15.60;99.90;;;;;;4997723;28;20045;-68
2022/06/05 00:38:41;;;;;;;5.65;2.65;;;15.60;99.90;;;;;;4999153;28;20041;-68
2022/06/05 00:41:36;;;;;;;4.78;2.70;;;15.60;99.90;;;;;;4995113;28;20034;-67
2022/06/05 00:44:04;;;;;;;4.55;2.38;;;15.60;99.90;;;;;;5009112;28;20062;-68
2022/06/05 00:46:32;;;;;;;3.83;1.90;;;15.60;99.90;;;;;;4999723;28;20050;-68
2022/06/05 00:48:58;;;;;;;7.47;2.30;;;15.50;99.90;;;;;;4998658;28;20044;-68
2022/06/05 00:51:24;;;;;;;7.03;2.50;;;15.60;99.90;;;;;;5000231;28;20039;-68
2022/06/05 00:53:50;;;;;;;6.90;2.20;;;15.50;99.90;;;;;;4998561;28;20038;-68
2022/06/05 00:56:17;;;;;;;5.75;2.85;;;15.50;99.90;;;;;;4997968;28;20049;-68
2022/06/05 00:58:43;;;;;;;6.60;2.40;;;15.60;99.90;;;;;;4999497;28;20030;-68
2022/06/05 01:01:09;;;;;;;5.28;2.13;;;15.60;99.90;;;;;;4997875;28;20038;-68
2022/06/05 01:03:36;;;;;;;8.10;2.65;;;15.60;99.90;;;;;;5000893;28;20037;-68
2022/06/05 01:06:02;;;;;;;5.60;2.75;;;15.60;99.90;;;;;;4997883;28;20038;-68
2022/06/05 01:08:27;;;;;;;3.90;1.85;;;15.50;99.90;;;;;;4998831;28;20048;-67
2022/06/05 01:11:02;;;;;;;5.53;2.63;;;15.50;99.90;;;;;;4999035;28;20181;-68
2022/06/05 01:13:48;;;;;;;9.90;3.53;;;15.50;99.90;;;;;;4995395;28;20038;-68
2022/06/05 01:16:14;;;;;;;5.95;1.98;;;15.50;99.90;;;;;;4997157;28;20046;-68
2022/06/05 01:18:58;;;;;;;4.80;2.22;;;15.50;99.90;;;;;;5003392;28;20041;-68
2022/06/05 01:21:55;;;;;;;8.88;2.15;;;15.40;99.90;;;;;;4998836;28;20038;-68
2022/06/05 01:24:39;;;;;;;6.50;2.53;;;15.40;99.90;;;;;;4995963;28;20045;-68
2022/06/05 01:27:09;;;;;;;6.80;2.05;;;15.50;99.90;;;;;;4997892;28;20137;-68
2022/06/05 01:29:37;;;;;;;;;;;15.40;99.90;;;;;;5001392;28;20779;-68
2022/06/05 01:32:10;;;;;;;7.32;2.30;;;15.30;99.90;;;;;;4995871;28;19971;-68
2022/06/05 01:34:38;;;;;;;5.53;2.28;;;15.30;99.90;;;;;;4999159;28;20069;-68
2022/06/05 01:37:37;;;;;;;7.28;2.35;;;15.30;99.90;;;;;;4997678;28;20042;-67
2022/06/05 01:40:07;;;;;;;4.55;2.20;;;15.30;99.90;;;;;;5009018;28;20067;-67
2022/06/05 01:42:44;;;;;;;7.05;2.47;;;15.30;99.90;;;;;;4999952;28;20034;-68
2022/06/05 01:45:25;;;;;;;4.60;1.90;;;15.30;99.90;;;;;;4998529;28;20050;-68
2022/06/05 01:47:54;;;;;;;8.70;2.67;;;15.30;99.90;;;;;;4996596;28;20042;-68
2022/06/05 01:50:37;;;;;;;6.32;2.60;;;15.20;99.90;;;;;;5000019;28;20070;-68
2022/06/05 01:53:24;;;;;;;6.43;2.25;;;15.20;99.90;;;;;;4993909;28;20490;-68
2022/06/05 01:55:50;;;;;;;6.72;2.17;;;15.20;99.90;;;;;;4999816;28;20035;-68
2022/06/05 01:58:19;;;;;;;4.35;2.45;;;15.20;99.90;;;;;;4999212;28;20093;-68
2022/06/05 02:00:50;;;;;;;8.00;2.60;;;15.20;99.90;;;;;;4998626;28;20034;-68
2022/06/05 02:03:24;;;;;;;6.97;2.30;;;15.20;99.90;;;;;;4998481;28;20058;-67
2022/06/05 02:05:55;;;;;;;6.68;2.65;;;15.30;99.90;;;;;;4997676;28;20304;-68
2022/06/05 02:08:43;;;;;;;8.75;2.85;;;15.30;99.90;;;;;;4999482;28;20045;-68
2022/06/05 02:11:27;;;;;;;6.95;2.60;;;15.30;99.90;;;;;;4995505;28;20076;-69
2022/06/05 02:14:00;;;;;;;6.10;2.17;;;15.30;99.90;;;;;;4996647;28;20034;-68
2022/06/05 02:16:27;;;;;;;4.30;2.47;;;15.30;99.90;;;;;;4999860;28;20168;-68
2022/06/05 02:18:53;;;;;;;4.72;2.70;;;15.30;99.90;;;;;;4999664;28;20452;-68
2022/06/05 02:21:19;;;;;;;5.60;2.67;;;15.30;99.90;;;;;;4999191;28;20039;-68
2022/06/05 02:23:44;;;;;;;10.38;3.15;;;15.30;99.90;;;;;;4997345;28;20045;-68
2022/06/05 02:26:10;;;;;;;4.05;2.20;;;15.40;99.90;;;;;;5002368;28;20612;-69
2022/06/05 02:28:37;;;;;;;5.90;2.80;;;15.30;99.90;;;;;;4999325;28;20042;-68
2022/06/05 02:31:10;;;;;;;5.85;2.30;;;15.30;99.90;;;;;;4995661;28;20030;-68
2022/06/05 02:33:44;;;;;;;4.70;2.60;;;15.30;99.90;;;;;;4997866;28;20092;-68
2022/06/05 02:36:45;;;;;;;5.07;2.50;;;15.30;99.90;;;;;;4997010;28;20276;-69
2022/06/05 02:39:32;;;;;;;7.80;2.30;;;15.30;99.90;;;;;;4996489;28;20455;-69
2022/06/05 02:42:14;;;;;;;13.52;3.30;;;15.30;99.90;;;;;;4991500;28;20066;-68
2022/06/05 02:44:54;;;;;;;7.60;3.00;;;15.20;99.90;;;;;;4997359;28;20088;-69
2022/06/05 02:47:35;;;;;;;6.50;2.88;;;15.20;99.90;;;;;;4999489;28;20767;-68
2022/06/05 02:50:26;;;;;;;5.90;2.85;;;15.20;99.90;;;;;;4994107;28;20116;-68
2022/06/05 02:52:58;;;;;;;7.18;2.60;;;15.20;99.90;;;;;;4995694;28;20041;-68
2022/06/05 02:55:24;;;;;;;5.50;2.38;;;15.20;99.90;;;;;;4998106;28;20061;-68
2022/06/05 02:57:50;;;;;;;6.60;2.55;;;15.20;99.90;;;;;;4996180;28;20853;-68
2022/06/05 03:00:28;;;;;;;3.92;2.08;;;15.20;99.90;;;;;;4998667;28;20081;-69
2022/06/05 03:05:39;;;;;;;4.30;2.20;;;15.10;99.90;;;;;;4993726;28;20081;-69
2022/06/05 03:08:07;;;;;;;6.32;2.28;;;15.10;99.90;;;;;;4998417;28;20048;-68
2022/06/05 03:10:33;;;;;;;7.85;2.97;;;15.10;99.90;;;;;;4997530;28;20039;-68
2022/06/05 03:13:01;;;;;;;7.07;2.30;;;15.10;99.90;;;;;;4997178;28;20491;-68
2022/06/05 03:15:27;;;;;;;5.75;2.65;;;15.10;99.90;;;;;;4994983;28;20035;-67
2022/06/05 03:17:53;;;;;;;10.45;2.80;;;15.10;99.90;;;;;;4999198;28;20044;-68
2022/06/05 03:20:19;;;;;;;5.50;2.75;;;15.10;99.90;;;;;;4999214;28;20026;-68
2022/06/05 03:22:45;;;;;;;7.88;3.05;;;15.10;99.90;;;;;;4994744;28;20529;-68
2022/06/05 03:25:16;;;;;;;7.97;2.85;;;15.10;99.90;;;;;;5007442;28;20030;-68
2022/06/05 03:27:42;;;;;;;8.25;3.10;;;15.10;99.90;;;;;;5005911;28;20034;-69
2022/06/05 03:30:08;;;;;;;7.10;2.42;;;15.00;99.90;;;;;;5012498;28;20450;-73
2022/06/05 03:32:34;;;;;;;5.60;2.63;;;15.00;99.90;;;;;;5008704;28;20050;-67
2022/06/05 03:34:59;;;;;;;9.63;3.33;;;15.00;99.90;;;;;;5010524;28;20468;-68
2022/06/05 03:37:25;;;;;;;6.13;2.75;;;15.00;99.90;;;;;;5011869;28;20041;-68
2022/06/05 03:39:50;;;;;;;9.30;3.47;;;14.90;99.90;;;;;;5009460;28;20085;-68
2022/06/05 03:42:16;;;;;;;5.68;3.40;;;14.80;99.90;;;;;;5011910;28;20061;-69
2022/06/05 03:44:42;;;;;;;7.65;3.20;;;14.80;99.90;;;;;;5007530;28;20029;-69
2022/06/05 03:47:10;;;;;;;7.65;3.80;;;14.70;99.90;;;;;;5009093;28;20045;-70
2022/06/05 03:49:36;;;;;;;7.00;3.28;;;14.80;99.90;;;;;;5006896;28;20053;-68
2022/06/05 03:52:05;;;;;;;8.15;3.55;;;14.70;99.90;;;;;;4998119;28;20035;-67
2022/06/05 03:54:31;;;;;;;6.70;3.13;;;14.70;99.90;;;;;;4998027;28;20117;-68
2022/06/05 03:56:57;;;;;;;7.10;3.22;;;14.70;99.90;;;;;;4995925;28;21603;-68
2022/06/05 03:59:23;;;;;;;5.53;2.95;;;14.80;99.90;;;;;;4997988;28;20039;-68
2022/06/05 04:01:49;;;;;;;9.10;3.58;;;14.80;99.90;;;;;;4999181;28;20506;-68
2022/06/05 04:04:14;;;;;;;6.50;3.63;;;14.70;99.90;;;;;;4995185;28;20031;-68
2022/06/05 04:06:40;;;;;;;6.65;3.47;;;14.70;99.90;;;;;;4997166;28;20126;-69
2022/06/05 04:09:08;;;;;;;7.38;3.55;;;14.80;99.90;;;;;;4997090;28;20046;-67
2022/06/05 04:11:36;;;;;;;8.98;3.53;;;14.70;99.90;;;;;;5000192;28;20490;-67
2022/06/05 04:14:03;;;;;;;7.35;3.10;;;14.80;99.90;;;;;;5000006;28;20039;-68
2022/06/05 04:16:31;;;;;;;6.72;3.67;;;14.70;99.90;;;;;;5001124;28;20034;-68
2022/06/05 04:18:58;;;;;;;9.73;3.78;;;14.70;99.90;;;;;;5005449;28;20088;-67
2022/06/05 04:21:26;;;;;;;7.75;3.33;;;14.70;99.90;;;;;;4997442;28;20030;-67
2022/06/05 04:23:53;;;;;;;7.13;3.10;;;14.60;99.90;;;;;;5001672;28;20048;-68
2022/06/05 04:26:25;;;;;;;9.48;3.65;;;14.70;99.90;;;;;;4998724;28;20033;-68
2022/06/05 04:28:53;;;;;;;8.48;3.90;;;14.70;99.90;;;;;;4995384;28;20541;-69
2022/06/05 04:31:27;;;;;;;9.90;3.90;;;14.60;99.90;;;;;;5002176;28;20080;-68
2022/06/05 04:33:55;;;;;;;7.72;3.42;;;14.60;99.90;;;;;;4995574;28;20057;-68
2022/06/05 04:36:21;;;;;;;9.00;3.45;;;14.60;99.90;;;;;;5002006;28;20076;-68
2022/06/05 04:38:47;;;;;;;7.70;4.00;;;14.60;99.90;;;;;;4994471;28;20101;-67
2022/06/05 04:41:14;;;;;;;8.02;3.15;;;14.70;99.90;;;;;;5001535;28;20516;-70
2022/06/05 04:43:40;;;;;;;7.88;3.90;;;14.60;99.90;;;;;;4997298;28;20112;-68
2022/06/05 04:46:06;;;;;;;10.00;4.45;;;14.70;99.90;;;;;;4999252;28;20038;-68
2022/06/05 04:48:33;;;;;;;6.82;3.47;;;14.80;99.90;;;;;;4998698;28;20030;-68
2022/06/05 04:51:01;;;;;;;8.52;3.70;;;14.70;99.90;;;;;;4999637;28;20054;-68
2022/06/05 04:53:27;;;;;;;9.45;3.53;;;14.70;99.90;;;;;;4999902;28;20034;-68
2022/06/05 04:55:53;;;;;;;8.75;4.25;;;14.70;99.90;;;;;;4998161;28;20032;-68
2022/06/05 04:58:18;;;;;;;9.75;3.80;;;14.80;99.90;;;;;;5000326;28;20045;-68
2022/06/05 05:00:44;;;;;;;9.65;4.10;;;14.80;99.90;;;;;;4998182;28;20508;-68
2022/06/05 05:03:10;;;;;;;11.27;5.30;;;14.80;99.90;;;;;;4998852;28;20092;-69
2022/06/05 05:05:35;;;;;;;10.23;4.38;;;14.80;99.90;;;;;;4997597;28;20399;-68
2022/06/05 05:08:01;;;;;;;8.15;3.80;;;14.80;99.90;;;;;;4999397;28;20034;-68
2022/06/05 05:10:27;;;;;;;8.85;4.32;;;14.70;99.90;;;;;;4998583;28;20030;-67
2022/06/05 05:12:52;;;;;;;8.82;4.25;;;14.80;99.90;;;;;;5000212;28;20406;-68
2022/06/05 05:15:18;;;;;;;7.32;4.32;;;14.70;99.90;;;;;;4998017;28;20022;-68
2022/06/05 05:17:44;;;;;;;9.27;3.67;;;14.70;99.90;;;;;;5001336;28;20333;-69
2022/06/05 05:20:11;;;;;;;8.57;4.05;;;14.70;99.90;;;;;;5015979;28;20045;-69
2022/06/05 05:22:38;;;;;;;7.07;3.92;;;14.70;99.90;;;;;;4996746;28;20042;-67
2022/06/05 05:25:09;;;;;;;12.75;3.83;;;14.70;99.90;;;;;;5002330;28;20905;-68
2022/06/05 05:27:36;;;;;;;8.30;4.25;;;14.70;99.90;;;;;;4996742;28;20129;-67
2022/06/05 05:30:03;;;;;;;11.90;3.90;;;14.70;99.90;;;;;;4998816;28;20030;-68
2022/06/05 05:32:29;;;;;;;10.15;4.65;;;14.70;99.90;;;;;;4998260;28;20030;-67
2022/06/05 05:34:55;;;;;;;25.45;4.38;;;14.70;99.90;;;;;;4997823;28;20033;-68
2022/06/05 05:37:20;;;;;;;8.32;3.92;;;14.70;99.90;;;;;;4998773;28;20082;-68
2022/06/05 05:42:30;;;;;;;10.65;4.82;;;14.80;99.90;;;;;;4997069;28;20037;-67
2022/06/05 05:44:57;;;;;;;11.25;4.10;;;14.80;99.90;;;;;;4999381;28;20034;-68
2022/06/05 05:47:29;;;;;;;15.82;3.72;;;14.80;99.90;;;;;;4997792;28;20038;-68
2022/06/05 05:50:00;;;;;;;11.23;4.30;;;14.80;99.90;;;;;;4999287;28;20041;-67
2022/06/05 05:52:27;;;;;;;9.05;4.65;;;14.80;99.90;;;;;;4996975;28;20117;-67
2022/06/05 05:54:54;;;;;;;10.13;4.35;;;14.70;99.90;;;;;;4999868;28;20042;-68
2022/06/05 05:57:20;;;;;;;7.68;4.38;;;14.70;99.90;;;;;;4997266;28;20052;-68
2022/06/05 05:59:47;;;;;;;9.65;4.35;;;14.70;99.90;;;;;;5000433;28;20584;-68
2022/06/05 06:02:16;;;;;;;8.15;4.18;;;14.80;99.90;;;;;;4991744;28;20792;-68
2022/06/05 06:04:42;;;;;;;8.80;4.37;;;14.70;99.90;;;;;;4998112;28;20030;-68
2022/06/05 06:07:09;;;;;;;8.02;3.90;;;14.80;99.90;;;;;;4997436;28;20081;-69
2022/06/05 06:09:35;;;;;;;10.90;4.65;;;14.80;99.90;;;;;;4999625;28;20041;-68
2022/06/05 06:12:01;;;;;;;8.23;4.05;;;14.70;99.90;;;;;;4998155;28;20038;-68
2022/06/05 06:14:27;;;;;;;9.43;4.60;;;14.80;99.90;;;;;;4997784;28;20052;-68
2022/06/05 06:16:52;;;;;;;9.07;3.83;;;14.80;99.90;;;;;;4999326;28;20038;-68
2022/06/05 06:19:18;;;;;;;9.63;4.65;;;14.80;99.90;;;;;;5000858;28;20038;-68
2022/06/05 06:21:44;;;;;;;12.40;4.07;;;14.90;99.90;;;;;;4996692;28;20090;-68
2022/06/05 06:24:11;;;;;;;9.75;5.22;;;15.00;99.90;;;;;;4997528;28;20409;-69
2022/06/05 06:26:38;;;;;;;11.15;4.45;;;15.10;99.90;;;;;;4999381;28;20033;-68
2022/06/05 06:29:03;;;;;;;8.15;4.22;;;15.00;99.90;;;;;;4998466;28;20066;-68
2022/06/05 06:31:29;;;;;;;9.20;5.20;;;15.00;99.90;;;;;;4996618;28;20080;-68
2022/06/05 06:33:55;;;;;;;8.73;4.20;;;15.00;99.90;;;;;;4996614;28;20042;-68
2022/06/05 06:36:20;;;;;;;13.02;5.30;;;15.10;99.90;;;;;;4998848;28;20045;-67
2022/06/05 06:38:47;;;;;;;7.78;4.22;;;15.10;99.90;;;;;;4997153;28;20145;-68
2022/06/05 06:41:16;;;;;;;10.90;4.55;;;15.10;99.90;;;;;;4999911;28;20038;-69
2022/06/05 06:43:45;;;;;;;11.00;4.72;;;15.20;99.90;;;;;;4992161;28;20110;-68
2022/06/05 06:46:11;;;;;;;8.30;4.57;;;15.20;99.90;;;;;;4992496;28;20085;-69
2022/06/05 06:48:37;;;;;;;8.32;3.80;;;15.20;99.90;;;;;;4999837;28;20069;-68
2022/06/05 06:51:04;;;;;;;8.13;4.18;;;15.20;99.90;;;;;;4996266;28;20077;-68
2022/06/05 06:53:31;;;;;;;9.25;4.32;;;15.20;99.90;;;;;;4997359;28;20087;-67
2022/06/05 06:55:57;;;;;;;9.23;4.28;;;15.30;99.90;;;;;;4997190;28;20553;-68
2022/06/05 06:58:23;;;;;;;7.93;4.10;;;15.40;99.90;;;;;;4996984;28;20062;-68
2022/06/05 07:00:48;;;;;;;9.02;4.32;;;15.40;99.90;;;;;;4998707;28;20061;-68
2022/06/05 07:03:14;;;;;;;9.52;4.70;;;15.50;99.90;;;;;;4993972;28;20038;-68
2022/06/05 07:05:40;;;;;;;9.40;4.32;;;15.60;99.90;;;;;;4999302;28;20042;-68
2022/06/05 07:08:08;;;;;;;11.90;4.97;;;15.60;99.90;;;;;;4996159;28;20448;-68
2022/06/05 07:10:34;;;;;;;8.27;3.83;;;15.70;99.90;;;;;;4998814;28;20084;-68
2022/06/05 07:13:00;;;;;;;9.48;4.70;;;15.70;99.90;;;;;;4996178;28;20029;-68
2022/06/05 07:15:33;;;;;;;9.50;3.83;;;15.80;99.90;;;;;;4997014;28;20046;-68
2022/06/05 07:18:08;;;;;;;6.78;3.67;;;15.90;99.90;;;;;;4998835;28;20042;-68
2022/06/05 07:20:36;;;;;;;8.60;4.53;;;15.90;99.90;;;;;;4996947;28;20042;-68
2022/06/05 07:23:02;;;;;;;9.15;4.75;;;16.00;99.90;;;;;;4996393;28;20042;-68
2022/06/05 07:25:29;;;;;;;9.27;3.95;;;16.10;99.90;;;;;;4998287;28;20037;-68
2022/06/05 07:27:54;;;;;;;9.73;4.63;;;16.30;99.90;;;;;;4996779;28;20046;-68
2022/06/05 07:30:20;;;;;;;8.27;3.92;;;16.40;99.90;;;;;;4997617;28;20770;-68
2022/06/05 07:32:47;;;;;;;7.18;3.78;;;16.50;99.90;;;;;;4995340;28;20453;-68
2022/06/05 07:35:13;;;;;;;8.48;4.10;;;16.80;99.90;;;;;;4998647;28;20029;-69
2022/06/05 07:37:39;;;;;;;10.65;4.32;;;17.10;99.90;;;;;;4999100;28;20026;-69
2022/06/05 07:40:06;;;;;;;9.55;4.32;;;17.40;99.90;;;;;;4999231;28;20048;-68
2022/06/05 07:42:31;;;;;;;6.47;3.17;;;17.60;99.90;;;;;;4995281;28;20030;-67
2022/06/05 07:44:57;;;;;;;6.28;3.40;;;18.00;99.90;;;;;;4999931;28;20030;-67
2022/06/05 07:47:22;;;;;;;9.27;3.47;;;18.30;99.90;;;;;;5000573;28;20081;-67
2022/06/05 07:49:48;;;;;;;9.13;3.85;;;18.70;99.90;;;;;;4998343;28;20038;-69
2022/06/05 07:54:58;;;;;;;7.18;3.42;;;19.70;99.90;;;;;;5001140;28;20064;-68
2022/06/05 07:57:23;;;;;;;5.38;2.80;;;20.20;99.90;;;;;;4994007;28;20470;-68
2022/06/05 07:59:50;;;;;;;5.68;3.03;;;20.40;99.90;;;;;;4998863;28;20037;-68
2022/06/05 08:02:22;;;;;;;5.78;2.75;;;20.60;99.90;;;;;;5000995;28;20038;-68
2022/06/05 08:04:49;;;;;;;10.20;3.53;;;21.00;99.90;;;;;;4999104;28;20045;-69
2022/06/05 08:07:17;;;;;;;5.97;3.20;;;21.50;99.90;;;;;;5000502;28;20129;-68
2022/06/05 08:09:43;;;;;;;6.72;2.80;;;21.90;99.90;;;;;;4999936;28;20050;-69
2022/06/05 08:12:12;;;;;;;6.35;2.80;;;22.00;99.90;;;;;;4997020;28;20038;-69
2022/06/05 08:14:39;;;;;;;7.85;2.97;;;22.00;99.90;;;;;;5000436;28;20034;-68
2022/06/05 08:17:08;;;;;;;6.10;2.78;;;22.10;99.90;;;;;;4993413;28;20038;-68
2022/06/05 08:19:34;;;;;;;3.80;2.42;;;22.10;99.90;;;;;;4996887;28;20038;-67
2022/06/05 08:21:59;;;;;;;4.13;2.55;;;22.30;99.90;;;;;;5000138;28;20490;-67
2022/06/05 08:24:25;;;;;;;7.10;2.95;;;22.20;99.90;;;;;;4997405;28;20049;-67
2022/06/05 08:26:51;;;;;;;6.72;2.97;;;22.40;99.50;;;;;;4999321;28;20128;-68
2022/06/05 08:29:18;;;;;;;5.65;2.80;;;22.30;99.90;;;;;;4999259;28;20132;-68
2022/06/05 08:31:43;;;;;;;6.78;2.55;;;22.50;99.70;;;;;;4997943;28;20053;-68
2022/06/05 08:34:10;;;;;;;6.00;2.55;;;22.50;99.80;;;;;;5000337;28;20129;-68
2022/06/05 08:36:36;;;;;;;4.55;2.65;;;22.60;99.60;;;;;;4997359;28;20034;-67
2022/06/05 08:42:14;;;;;;;8.32;2.55;;;22.40;99.50;;;;;;4965816;28;20050;-67
2022/06/05 08:45:12;;;;;;;8.95;3.33;;;22.40;99.90;;;;;;4965426;28;20041;-68
2022/06/05 08:48:10;;;;;;;4.65;2.42;;;22.60;98.90;;;;;;4953292;28;20038;-68
2022/06/05 08:50:41;;;;;;;6.50;2.45;;;22.60;99.20;;;;;;4988777;28;20104;-68
2022/06/05 08:53:33;;;;;;;;;;;22.60;99.70;;;;;;4998158;28;20034;-67
2022/06/05 08:55:59;;;;;;;4.60;2.45;;;22.90;98.90;;;;;;4977871;28;19913;-68
2022/06/05 08:58:57;;;;;;;5.40;2.60;;;22.90;99.20;;;;;;4996896;28;20030;-68
2022/06/05 09:01:39;;;;;;;4.93;2.50;;;22.80;99.90;;;;;;4990119;28;20042;-68
2022/06/05 09:04:44;;;;;;;7.28;2.90;;;22.90;99.90;;;;;;4992288;28;20121;-68
2022/06/05 09:07:26;;;;;;;4.13;2.30;;;23.00;99.10;;;;;;4995987;28;20123;-68
2022/06/05 09:09:58;;;;;;;4.03;2.15;;;23.10;99.50;;;;;;4998388;28;20042;-68
2022/06/05 09:12:38;;;;;;;3.97;2.45;;;23.20;98.70;;;;;;4995196;28;20049;-67
2022/06/05 09:15:13;;;;;;;5.97;2.63;;;23.20;98.40;;;;;;4995339;28;20541;-67
2022/06/05 09:17:49;;;;;;;5.38;2.60;;;23.20;98.40;;;;;;4992770;28;20117;-72
2022/06/05 09:20:16;;;;;;;3.45;2.00;;;23.00;98.50;;;;;;4998046;28;20040;-67
2022/06/05 09:22:50;;;;;;;3.25;2.00;;;23.00;99.40;;;;;;4998866;28;20505;-68
2022/06/05 09:25:40;;;;;;;4.68;2.60;;;22.90;98.50;;;;;;5000700;28;20038;-68
2022/06/05 09:28:29;;;;;;;2.60;1.90;;;23.00;98.90;;;;;;4993880;28;20034;-67
2022/06/05 09:31:18;;;;;;;3.50;2.13;;;23.00;98.90;;;;;;5011976;28;20045;-67
2022/06/05 09:33:46;;;;;;;5.90;1.98;;;22.90;99.70;;;;;;4995200;28;20037;-69
2022/06/05 09:36:15;;;;;;;4.00;2.20;;;22.90;99.50;;;;;;4998964;28;20057;-67
2022/06/05 09:38:55;;;;;;;6.15;2.53;;;22.90;99.30;;;;;;4996562;28;20026;-67
2022/06/05 09:41:39;;;;;;;4.75;2.90;;;23.10;98.70;;;;;;4997681;28;20442;-67
2022/06/05 09:44:18;;;;;;;5.43;2.10;;;23.10;98.90;;;;;;4991332;28;20117;-67
2022/06/05 09:46:47;;;;;;;3.65;2.00;;;22.90;99.90;;;;;;4998505;28;20080;-67
2022/06/05 09:49:22;;;;;;;3.85;2.30;;;22.90;99.90;;;;;;4997614;28;20403;-66
2022/06/05 09:51:47;;;;;;;5.57;2.53;;;22.90;99.90;;;;;;4997760;28;20124;-68
2022/06/05 09:54:22;;;;;;;4.75;2.58;;;23.00;99.70;;;;;;4995531;28;20097;-67
2022/06/05 10:00:08;;;;;;;5.00;2.30;;;23.10;99.40;;;;;;4997510;28;20418;-67
2022/06/05 10:02:36;;;;;;;4.55;2.15;;;23.10;99.40;;;;;;4993088;28;20444;-67
2022/06/05 10:05:14;;;;;;;5.35;2.33;;;23.00;99.60;;;;;;4999330;28;20092;-67
2022/06/05 10:07:55;;;;;;;5.28;2.30;;;22.90;99.90;;;;;;4996757;28;20401;-69
2022/06/05 10:10:36;;;;;;;5.35;2.53;;;22.90;99.90;;;;;;4998625;28;20046;-68
2022/06/05 10:13:42;;;;;;;4.13;2.38;;;22.90;99.90;;;;;;4991992;28;20037;-67
2022/06/05 10:16:32;;;;;;;4.68;2.30;;;22.90;99.90;;;;;;4993601;28;20046;-67
2022/06/05 10:19:05;;;;;;;3.90;2.30;;;22.90;99.80;;;;;;4991700;28;20034;-67
2022/06/05 10:21:50;;;;;;;4.35;2.30;;;22.90;99.80;;;;;;4998940;28;20037;-67
2022/06/05 10:24:43;;;;;;;4.32;2.38;;;23.00;99.80;;;;;;4995512;28;20023;-68
2022/06/05 10:27:13;;;;;;;3.10;2.30;;;22.90;99.90;;;;;;4997804;28;20045;-71
2022/06/05 10:29:44;;;;;;;2.88;1.95;;;22.90;99.90;;;;;;4997294;28;20033;-67
2022/06/05 10:32:31;;;;;;;2.65;2.22;;;22.90;99.90;;;;;;4996044;28;20038;-68
2022/06/05 10:35:09;;;;;;;3.60;2.22;;;23.00;99.90;;;;;;4997785;28;20038;-67
2022/06/05 10:37:48;;;;;;;4.43;2.10;;;22.90;99.90;;;;;;4993867;28;20050;-68
2022/06/05 10:40:31;;;;;;;5.47;2.97;;;22.80;99.90;;;;;;4996715;28;20041;-67
2022/06/05 10:43:03;;;;;;;6.90;2.80;;;23.00;99.90;;;;;;4998534;28;20030;-67
2022/06/05 10:45:39;;;;;;;4.60;2.15;;;22.90;99.90;;;;;;4991995;28;20038;-67
2022/06/05 10:48:32;;;;;;;3.72;2.25;;;22.90;99.90;;;;;;5008377;28;20530;-67
2022/06/05 10:51:16;;;;;;;2.90;2.08;;;23.00;99.90;;;;;;4991195;28;20037;-67
2022/06/05 10:53:57;;;;;;;3.78;2.28;;;23.00;99.90;;;;;;4993828;28;20695;-68
2022/06/05 10:56:32;;;;;;;5.07;2.92;;;22.90;99.90;;;;;;4998753;28;20394;-68
2022/06/05 10:59:19;;;;;;;6.13;2.50;;;22.90;99.90;;;;;;4991709;28;20701;-67
2022/06/05 11:02:01;;;;;;;3.72;2.63;;;23.00;99.90;;;;;;4995331;28;20026;-67
2022/06/05 11:04:45;;;;;;;6.05;2.35;;;23.10;99.90;;;;;;4996739;28;20113;-67
2022/06/05 11:07:29;;;;;;;5.55;2.72;;;23.10;99.90;;;;;;4998474;28;20084;-68
2022/06/05 11:10:15;;;;;;;6.57;2.28;;;23.20;99.90;;;;;;5005779;28;20524;-67
2022/06/05 11:15:57;;;;;;;4.00;2.17;;;23.10;99.90;;;;;;4995956;28;20560;-67
2022/06/05 11:18:35;;;;;;;7.15;3.20;;;23.00;99.90;;;;;;4998679;28;20417;-67
2022/06/05 11:21:02;;;;;;;4.05;2.65;;;23.00;99.90;;;;;;4992116;28;20033;-67
2022/06/05 11:23:32;;;;;;;5.90;3.10;;;23.00;99.90;;;;;;4996162;28;20404;-67
2022/06/05 11:26:23;;;;;;;5.63;2.63;;;22.80;99.90;;;;;;4998529;28;20351;-67
2022/06/05 11:28:51;;;;;;;3.38;2.25;;;22.70;99.90;;;;;;4993648;28;20038;-67
2022/06/05 11:31:24;;;;;;;3.50;2.20;;;22.50;99.90;;;;;;4997730;28;20175;-68
2022/06/05 11:34:17;;;;;;;3.60;2.15;;;22.40;99.90;;;;;;4994351;28;20193;-67
2022/06/05 11:36:49;;;;;;;7.72;2.65;;;22.50;99.90;;;;;;4995358;28;20505;-67
2022/06/05 11:40:06;;;;;;;5.95;2.70;;;22.50;99.90;;;;;;4995862;28;20200;-67
2022/06/05 11:42:32;;;;;;;4.03;2.72;;;22.40;99.90;;;;;;4985725;28;20038;-66
2022/06/05 11:45:26;;;;;;;4.13;2.33;;;22.50;99.90;;;;;;4995159;28;20029;-65
2022/06/05 11:48:18;;;;;;;21.80;3.72;;;22.50;99.90;;;;;;4990620;28;20057;-67
2022/06/05 11:51:22;;;;;;;5.55;3.00;;;22.40;99.90;;;;;;4992892;28;20077;-66
2022/06/05 11:54:20;;;;;;;6.10;3.50;;;22.30;99.90;;;;;;5003896;28;20832;-66
2022/06/05 11:56:57;;;;;;;5.88;2.75;;;22.10;99.90;;;;;;5004656;28;20041;-68
2022/06/05 11:59:44;;;;;;;6.90;2.90;;;22.00;99.90;;;;;;4987335;28;20026;-66
2022/06/05 12:02:42;;;;;;;7.68;2.47;;;21.90;99.90;;;;;;4988366;28;20123;-68
2022/06/05 12:05:49;;;;;;;6.95;3.10;;;21.90;99.90;;;;;;4988457;28;20650;-67
2022/06/05 12:08:45;;;;;;;5.65;3.08;;;21.80;99.90;;;;;;4985279;28;20046;-65
2022/06/05 12:11:15;;;;;;;5.70;3.00;;;21.60;99.90;;;;;;4988450;28;20042;-67
2022/06/05 12:14:09;;;;;;;5.73;2.87;;;21.50;99.90;;;;;;4988377;28;20121;-66
2022/06/05 12:16:56;;;;;;;9.27;3.20;;;21.40;99.90;;;;;;4987591;28;20518;-67
2022/06/05 12:19:30;;;;;;;5.82;3.58;;;21.30;99.90;;;;;;4986703;28;20140;-68
2022/06/05 12:22:15;;;;;;;6.72;3.08;;;21.20;99.90;;;;;;4993475;28;20038;-69
2022/06/05 12:24:51;;;;;;;7.38;3.45;;;21.10;99.90;;;;;;4985368;28;20042;-65
2022/06/05 12:27:20;;;;;;;7.05;3.60;;;21.00;99.90;;;;;;4988686;28;20030;-69
2022/06/05 12:29:50;;;;;;;6.88;3.72;;;21.00;99.90;;;;;;4991109;28;20037;-71
2022/06/05 12:32:20;;;;;;;6.90;3.80;;;20.90;99.90;;;;;;4995087;28;20038;-69
2022/06/05 12:34:51;;;;;;;;;;;20.80;99.90;;;;;;4994124;28;20072;-70
2022/06/05 12:37:42;;;;;;;5.78;3.15;;;20.80;99.90;;;;;;4991047;28;19922;-66
2022/06/05 12:40:36;;;;;;;7.40;3.85;;;20.70;99.90;;;;;;4994491;28;20053;-66
2022/06/05 12:43:12;;;;;;;6.50;3.92;;;20.70;99.90;;;;;;4995280;28;20110;-66
2022/06/05 12:45:41;;;;;;;5.35;3.28;;;20.60;99.90;;;;;;4995282;28;20034;-70
2022/06/05 12:48:24;;;;;;;4.82;3.53;;;20.50;99.90;;;;;;4988883;28;20038;-70
2022/06/05 12:51:25;;;;;;;8.15;4.65;;;20.40;99.90;;;;;;4994024;28;20046;-69
2022/06/05 12:53:50;;;;;;;7.72;4.03;;;20.40;99.90;;;;;;4987054;28;20042;-70
2022/06/05 12:56:22;;;;;;;10.65;4.43;;;20.50;99.90;;;;;;4992463;28;20044;-66
2022/06/05 12:59:11;;;;;;;8.07;4.40;;;20.50;99.90;;;;;;4991217;28;20069;-66
2022/06/05 13:01:51;;;;;;;11.77;4.60;;;20.60;99.90;;;;;;4989812;28;20436;-67
2022/06/05 13:04:51;;;;;;;7.15;4.03;;;20.60;99.90;;;;;;4995958;28;20091;-66
2022/06/05 13:07:49;;;;;;;8.02;4.78;;;20.70;99.90;;;;;;4993950;28;20030;-69
2022/06/05 13:10:34;;;;;;;14.02;4.85;;;20.60;99.90;;;;;;4991886;28;20113;-70
2022/06/05 13:13:08;;;;;;;8.32;4.70;;;20.50;99.90;;;;;;4991055;28;20041;-68
2022/06/05 13:15:45;;;;;;;10.25;4.53;;;20.60;99.90;;;;;;4991083;28;20446;-67
2022/06/05 13:18:19;;;;;;;10.55;4.70;;;20.50;99.90;;;;;;4992549;28;20034;-72
2022/06/05 13:20:56;;;;;;;10.20;4.70;;;20.50;99.90;;;;;;4987442;28;20074;-69
2022/06/05 13:23:34;;;;;;;7.38;4.53;;;20.40;99.90;;;;;;4990124;28;20061;-69
2022/06/05 13:26:36;;;;;;;7.00;5.10;;;20.30;99.90;;;;;;4997102;28;20057;-69
2022/06/05 13:29:34;;;;;;;17.75;4.88;;;20.30;99.90;;;;;;4993519;28;20042;-68
2022/06/05 13:32:16;;;;;;;10.35;4.75;;;20.30;99.90;;;;;;4992796;28;20039;-68
2022/06/05 13:34:53;;;;;;;6.72;4.43;;;20.20;99.90;;;;;;4994805;28;20045;-71
2022/06/05 13:37:26;;;;;;;7.93;5.45;;;20.10;99.90;;;;;;4998022;28;20052;-70